sensor_id;sensor_type;location;lat;lon;timestamp;pressure;altitude;pressure_sealevel;temperature;humidity
50368;BME280;36281;34.132;-118.018;2024-03-02T00:02:09;100344.22;;;19.01;48.05
50368;BME280;36281;34.132;-118.018;2024-03-02T00:04:38;100358.09;;;18.93;49.39
50368;BME280;36281;34.132;-118.018;2024-03-02T00:07:08;100359.50;;;18.74;48.07
50368;BME280;36281;34.132;-118.018;2024-03-02T00:09:37;100344.25;;;18.52;48.10
50368;BME280;36281;34.132;-118.018;2024-03-02T00:12:10;100358.47;;;18.53;48.21
50368;BME280;36281;34.132;-118.018;2024-03-02T00:14:43;100361.25;;;18.36;49.14
50368;BME280;36281;34.132;-118.018;2024-03-02T00:17:23;100359.56;;;18.30;49.25
50368;BME280;36281;34.132;-118.018;2024-03-02T00:19:53;100362.09;;;18.20;49.14
50368;BME280;36281;34.132;-118.018;2024-03-02T00:22:22;100352.50;;;18.24;49.46
50368;BME280;36281;34.132;-118.018;2024-03-02T00:24:51;100361.94;;;18.26;49.41
50368;BME280;36281;34.132;-118.018;2024-03-02T00:27:21;100350.81;;;18.18;49.48
50368;BME280;36281;34.132;-118.018;2024-03-02T00:29:55;100349.97;;;18.12;49.40
50368;BME280;36281;34.132;-118.018;2024-03-02T00:32:24;100351.09;;;18.16;50.27
50368;BME280;36281;34.132;-118.018;2024-03-02T00:34:54;100357.75;;;18.14;50.94
50368;BME280;36281;34.132;-118.018;2024-03-02T00:37:23;100355.00;;;18.08;51.12
50368;BME280;36281;34.132;-118.018;2024-03-02T00:39:53;100363.31;;;18.07;51.03
50368;BME280;36281;34.132;-118.018;2024-03-02T00:42:22;100362.81;;;18.10;51.41
50368;BME280;36281;34.132;-118.018;2024-03-02T00:44:54;100366.25;;;18.05;51.34
50368;BME280;36281;34.132;-118.018;2024-03-02T00:47:23;100347.03;;;17.92;51.67
50368;BME280;36281;34.132;-118.018;2024-03-02T00:49:52;100371.75;;;17.99;51.47
50368;BME280;36281;34.132;-118.018;2024-03-02T00:52:22;100376.63;;;18.02;51.28
50368;BME280;36281;34.132;-118.018;2024-03-02T00:54:55;100377.94;;;17.99;50.91
50368;BME280;36281;34.132;-118.018;2024-03-02T00:57:27;100370.44;;;17.79;51.47
50368;BME280;36281;34.132;-118.018;2024-03-02T01:00:00;100372.88;;;17.81;51.27
50368;BME280;36281;34.132;-118.018;2024-03-02T01:02:30;100374.97;;;17.62;51.21
50368;BME280;36281;34.132;-118.018;2024-03-02T01:04:59;100366.53;;;17.53;52.04
50368;BME280;36281;34.132;-118.018;2024-03-02T01:07:28;100363.31;;;17.51;52.21
50368;BME280;36281;34.132;-118.018;2024-03-02T01:09:57;100384.22;;;17.54;52.26
50368;BME280;36281;34.132;-118.018;2024-03-02T01:12:27;100376.69;;;17.51;52.44
50368;BME280;36281;34.132;-118.018;2024-03-02T01:14:56;100365.97;;;17.35;52.06
50368;BME280;36281;34.132;-118.018;2024-03-02T01:17:27;100379.44;;;17.40;52.76
50368;BME280;36281;34.132;-118.018;2024-03-02T01:19:56;100379.38;;;17.35;53.07
50368;BME280;36281;34.132;-118.018;2024-03-02T01:22:25;100374.44;;;17.26;53.45
50368;BME280;36281;34.132;-118.018;2024-03-02T01:24:55;100376.22;;;17.21;53.98
50368;BME280;36281;34.132;-118.018;2024-03-02T01:27:24;100371.81;;;17.15;54.33
50368;BME280;36281;34.132;-118.018;2024-03-02T01:29:53;100392.19;;;17.16;54.78
50368;BME280;36281;34.132;-118.018;2024-03-02T01:32:23;100385.44;;;17.13;55.34
50368;BME280;36281;34.132;-118.018;2024-03-02T01:34:54;100382.06;;;17.18;55.49
50368;BME280;36281;34.132;-118.018;2024-03-02T01:37:23;100378.81;;;17.16;55.70
50368;BME280;36281;34.132;-118.018;2024-03-02T01:39:52;100366.81;;;17.18;55.75
50368;BME280;36281;34.132;-118.018;2024-03-02T01:42:22;100360.56;;;17.13;55.89
50368;BME280;36281;34.132;-118.018;2024-03-02T01:44:51;100361.91;;;17.15;56.23
50368;BME280;36281;34.132;-118.018;2024-03-02T01:47:20;100349.94;;;17.01;57.53
50368;BME280;36281;34.132;-118.018;2024-03-02T01:49:50;100364.28;;;17.12;59.17
50368;BME280;36281;34.132;-118.018;2024-03-02T01:52:21;100356.81;;;16.97;60.79
50368;BME280;36281;34.132;-118.018;2024-03-02T01:54:50;100366.47;;;16.98;61.22
50368;BME280;36281;34.132;-118.018;2024-03-02T01:57:19;100371.56;;;16.99;61.84
50368;BME280;36281;34.132;-118.018;2024-03-02T01:59:49;100369.78;;;16.88;63.12
50368;BME280;36281;34.132;-118.018;2024-03-02T02:02:19;100373.25;;;16.89;63.14
50368;BME280;36281;34.132;-118.018;2024-03-02T02:04:48;100363.78;;;16.81;63.59
50368;BME280;36281;34.132;-118.018;2024-03-02T02:07:17;100374.69;;;16.79;63.87
50368;BME280;36281;34.132;-118.018;2024-03-02T02:09:48;100364.72;;;16.75;64.03
50368;BME280;36281;34.132;-118.018;2024-03-02T02:12:18;100362.97;;;16.69;64.43
50368;BME280;36281;34.132;-118.018;2024-03-02T02:14:50;100378.75;;;16.70;64.42
50368;BME280;36281;34.132;-118.018;2024-03-02T02:17:21;100382.75;;;16.68;64.47
50368;BME280;36281;34.132;-118.018;2024-03-02T02:19:50;100379.53;;;16.54;64.62
50368;BME280;36281;34.132;-118.018;2024-03-02T02:22:21;100383.72;;;16.50;64.41
50368;BME280;36281;34.132;-118.018;2024-03-02T02:24:50;100382.72;;;16.51;65.01
50368;BME280;36281;34.132;-118.018;2024-03-02T02:27:21;100377.72;;;16.43;64.65
50368;BME280;36281;34.132;-118.018;2024-03-02T02:29:51;100344.91;;;16.19;65.54
50368;BME280;36281;34.132;-118.018;2024-03-02T02:32:20;100388.22;;;16.33;66.37
50368;BME280;36281;34.132;-118.018;2024-03-02T02:34:53;100368.59;;;16.15;66.83
50368;BME280;36281;34.132;-118.018;2024-03-02T02:37:24;100392.06;;;16.25;67.58
50368;BME280;36281;34.132;-118.018;2024-03-02T02:39:53;100387.41;;;16.20;67.78
50368;BME280;36281;34.132;-118.018;2024-03-02T02:42:22;100394.72;;;16.25;67.82
50368;BME280;36281;34.132;-118.018;2024-03-02T02:44:51;100391.03;;;16.14;68.52
50368;BME280;36281;34.132;-118.018;2024-03-02T02:47:20;100398.25;;;16.14;69.15
50368;BME280;36281;34.132;-118.018;2024-03-02T02:49:49;100383.41;;;15.94;69.45
50368;BME280;36281;34.132;-118.018;2024-03-02T02:52:19;100400.81;;;16.09;69.52
50368;BME280;36281;34.132;-118.018;2024-03-02T02:54:50;100409.50;;;16.16;69.39
50368;BME280;36281;34.132;-118.018;2024-03-02T02:57:20;100383.75;;;15.98;70.11
50368;BME280;36281;34.132;-118.018;2024-03-02T02:59:49;100405.44;;;16.13;70.07
50368;BME280;36281;34.132;-118.018;2024-03-02T03:02:18;100397.69;;;16.12;69.86
50368;BME280;36281;34.132;-118.018;2024-03-02T03:04:47;100400.25;;;16.07;70.09
50368;BME280;36281;34.132;-118.018;2024-03-02T03:07:16;100385.47;;;16.04;70.18
50368;BME280;36281;34.132;-118.018;2024-03-02T03:09:45;100389.09;;;15.98;70.66
50368;BME280;36281;34.132;-118.018;2024-03-02T03:12:17;100403.81;;;16.00;71.09
50368;BME280;36281;34.132;-118.018;2024-03-02T03:14:46;100403.25;;;15.98;71.20
50368;BME280;36281;34.132;-118.018;2024-03-02T03:17:15;100390.25;;;15.90;71.40
50368;BME280;36281;34.132;-118.018;2024-03-02T03:19:44;100383.19;;;15.84;71.54
50368;BME280;36281;34.132;-118.018;2024-03-02T03:22:13;100396.53;;;15.84;71.51
50368;BME280;36281;34.132;-118.018;2024-03-02T03:24:43;100402.34;;;15.81;71.95
50368;BME280;36281;34.132;-118.018;2024-03-02T03:27:12;100418.63;;;15.91;71.83
50368;BME280;36281;34.132;-118.018;2024-03-02T03:29:43;100412.81;;;15.83;72.54
50368;BME280;36281;34.132;-118.018;2024-03-02T03:32:12;100401.31;;;15.82;72.33
50368;BME280;36281;34.132;-118.018;2024-03-02T03:34:42;100413.00;;;15.81;72.38
50368;BME280;36281;34.132;-118.018;2024-03-02T03:37:11;100394.22;;;15.64;73.06
50368;BME280;36281;34.132;-118.018;2024-03-02T03:39:40;100411.16;;;15.70;73.45
50368;BME280;36281;34.132;-118.018;2024-03-02T03:42:09;100422.91;;;15.69;73.82
50368;BME280;36281;34.132;-118.018;2024-03-02T03:44:38;100400.81;;;15.62;73.63
50368;BME280;36281;34.132;-118.018;2024-03-02T03:47:10;100421.28;;;15.68;74.32
50368;BME280;36281;34.132;-118.018;2024-03-02T03:49:40;100417.84;;;15.61;74.47
50368;BME280;36281;34.132;-118.018;2024-03-02T03:52:09;100430.34;;;15.67;75.16
50368;BME280;36281;34.132;-118.018;2024-03-02T03:54:38;100420.34;;;15.74;74.70
50368;BME280;36281;34.132;-118.018;2024-03-02T03:57:07;100416.50;;;15.70;74.73
50368;BME280;36281;34.132;-118.018;2024-03-02T03:59:37;100428.81;;;15.71;75.33
50368;BME280;36281;34.132;-118.018;2024-03-02T04:02:06;100433.13;;;15.72;75.66
50368;BME280;36281;34.132;-118.018;2024-03-02T04:04:38;100428.69;;;15.66;75.68
50368;BME280;36281;34.132;-118.018;2024-03-02T04:07:07;100437.03;;;15.58;77.03
50368;BME280;36281;34.132;-118.018;2024-03-02T04:09:36;100435.69;;;15.67;76.43
50368;BME280;36281;34.132;-118.018;2024-03-02T04:12:06;100447.63;;;15.64;77.05
50368;BME280;36281;34.132;-118.018;2024-03-02T04:14:36;100445.53;;;15.66;77.23
50368;BME280;36281;34.132;-118.018;2024-03-02T04:17:06;100434.13;;;15.59;77.87
50368;BME280;36281;34.132;-118.018;2024-03-02T04:19:37;100443.97;;;15.59;77.97
50368;BME280;36281;34.132;-118.018;2024-03-02T04:22:06;100433.06;;;15.48;78.21
50368;BME280;36281;34.132;-118.018;2024-03-02T04:24:48;100435.72;;;15.48;77.92
50368;BME280;36281;34.132;-118.018;2024-03-02T04:27:17;100428.03;;;15.40;78.17
50368;BME280;36281;34.132;-118.018;2024-03-02T04:29:46;100426.88;;;15.36;78.24
50368;BME280;36281;34.132;-118.018;2024-03-02T04:32:16;100427.59;;;15.32;78.67
50368;BME280;36281;34.132;-118.018;2024-03-02T04:34:47;100409.22;;;15.23;78.24
50368;BME280;36281;34.132;-118.018;2024-03-02T04:37:16;100427.84;;;15.42;78.23
50368;BME280;36281;34.132;-118.018;2024-03-02T04:39:45;100430.72;;;15.40;78.35
50368;BME280;36281;34.132;-118.018;2024-03-02T04:42:15;100425.38;;;15.40;78.28
50368;BME280;36281;34.132;-118.018;2024-03-02T04:44:44;100425.84;;;15.37;78.57
50368;BME280;36281;34.132;-118.018;2024-03-02T04:47:13;100409.72;;;15.32;77.78
50368;BME280;36281;34.132;-118.018;2024-03-02T04:49:42;100420.03;;;15.40;77.92
50368;BME280;36281;34.132;-118.018;2024-03-02T04:52:13;100413.31;;;15.38;77.94
50368;BME280;36281;34.132;-118.018;2024-03-02T04:54:43;100422.59;;;15.35;78.19
50368;BME280;36281;34.132;-118.018;2024-03-02T04:57:30;100423.75;;;15.39;78.32
50368;BME280;36281;34.132;-118.018;2024-03-02T05:00:00;100433.50;;;15.34;78.47
50368;BME280;36281;34.132;-118.018;2024-03-02T05:02:29;100416.41;;;15.23;78.95
50368;BME280;36281;34.132;-118.018;2024-03-02T05:04:59;100400.16;;;15.13;78.44
50368;BME280;36281;34.132;-118.018;2024-03-02T05:07:31;100409.34;;;15.17;78.38
50368;BME280;36281;34.132;-118.018;2024-03-02T05:10:00;100429.88;;;15.28;78.89
50368;BME280;36281;34.132;-118.018;2024-03-02T05:12:30;100431.06;;;15.32;79.09
50368;BME280;36281;34.132;-118.018;2024-03-02T05:15:19;100425.13;;;15.30;78.97
50368;BME280;36281;34.132;-118.018;2024-03-02T05:17:48;100424.69;;;15.33;79.31
50368;BME280;36281;34.132;-118.018;2024-03-02T05:20:18;100435.00;;;15.41;78.81
50368;BME280;36281;34.132;-118.018;2024-03-02T05:22:48;100434.31;;;15.34;79.37
50368;BME280;36281;34.132;-118.018;2024-03-02T05:25:18;100442.56;;;15.33;79.88
50368;BME280;36281;34.132;-118.018;2024-03-02T05:27:48;100438.03;;;15.33;81.73
50368;BME280;36281;34.132;-118.018;2024-03-02T05:30:18;100445.22;;;15.33;82.44
50368;BME280;36281;34.132;-118.018;2024-03-02T05:32:47;100435.00;;;15.30;83.99
50368;BME280;36281;34.132;-118.018;2024-03-02T05:35:16;100394.69;;;15.08;83.86
50368;BME280;36281;34.132;-118.018;2024-03-02T05:37:45;100440.34;;;15.41;84.24
50368;BME280;36281;34.132;-118.018;2024-03-02T05:40:16;100411.44;;;15.27;83.87
50368;BME280;36281;34.132;-118.018;2024-03-02T05:42:48;100439.88;;;15.33;84.46
50368;BME280;36281;34.132;-118.018;2024-03-02T05:45:18;100394.00;;;15.12;83.61
50368;BME280;36281;34.132;-118.018;2024-03-02T05:47:47;100417.34;;;15.17;84.14
50368;BME280;36281;34.132;-118.018;2024-03-02T05:50:16;100432.56;;;15.28;83.86
50368;BME280;36281;34.132;-118.018;2024-03-02T05:52:45;100409.78;;;15.14;84.05
50368;BME280;36281;34.132;-118.018;2024-03-02T05:55:17;100428.47;;;15.25;84.09
50368;BME280;36281;34.132;-118.018;2024-03-02T05:57:47;100419.66;;;15.25;84.03
50368;BME280;36281;34.132;-118.018;2024-03-02T06:00:39;100422.34;;;15.25;83.96
50368;BME280;36281;34.132;-118.018;2024-03-02T06:03:08;100387.44;;;14.96;84.31
50368;BME280;36281;34.132;-118.018;2024-03-02T06:05:38;100418.16;;;15.17;84.69
50368;BME280;36281;34.132;-118.018;2024-03-02T06:08:07;100411.53;;;15.20;84.62
50368;BME280;36281;34.132;-118.018;2024-03-02T06:10:38;100404.44;;;15.14;84.50
50368;BME280;36281;34.132;-118.018;2024-03-02T06:13:07;100406.75;;;15.10;85.23
50368;BME280;36281;34.132;-118.018;2024-03-02T06:15:36;100411.75;;;15.07;85.36
50368;BME280;36281;34.132;-118.018;2024-03-02T06:18:06;100411.88;;;15.12;85.59
50368;BME280;36281;34.132;-118.018;2024-03-02T06:20:36;100394.44;;;14.97;85.78
50368;BME280;36281;34.132;-118.018;2024-03-02T06:23:05;100403.94;;;15.05;86.11
50368;BME280;36281;34.132;-118.018;2024-03-02T06:25:35;100400.91;;;15.02;87.32
50368;BME280;36281;34.132;-118.018;2024-03-02T06:28:06;100411.59;;;15.02;88.62
50368;BME280;36281;34.132;-118.018;2024-03-02T06:30:36;100403.59;;;15.02;89.43
50368;BME280;36281;34.132;-118.018;2024-03-02T06:33:05;100392.44;;;14.93;91.50
50368;BME280;36281;34.132;-118.018;2024-03-02T06:35:35;100370.47;;;14.79;92.38
50368;BME280;36281;34.132;-118.018;2024-03-02T06:38:05;100407.16;;;14.95;92.45
50368;BME280;36281;34.132;-118.018;2024-03-02T06:40:34;100361.84;;;14.65;92.16
50368;BME280;36281;34.132;-118.018;2024-03-02T06:43:05;100394.16;;;14.87;92.17
50368;BME280;36281;34.132;-118.018;2024-03-02T06:45:34;100366.13;;;14.66;93.16
50368;BME280;36281;34.132;-118.018;2024-03-02T06:48:05;100362.66;;;14.66;93.81
50368;BME280;36281;34.132;-118.018;2024-03-02T06:50:34;100404.59;;;14.89;93.28
50368;BME280;36281;34.132;-118.018;2024-03-02T06:53:04;100407.50;;;14.87;92.75
50368;BME280;36281;34.132;-118.018;2024-03-02T06:55:33;100405.84;;;14.86;92.93
50368;BME280;36281;34.132;-118.018;2024-03-02T06:58:02;100388.56;;;14.77;92.91
50368;BME280;36281;34.132;-118.018;2024-03-02T07:00:34;100397.28;;;14.84;93.42
50368;BME280;36281;34.132;-118.018;2024-03-02T07:03:03;100392.19;;;14.83;93.32
50368;BME280;36281;34.132;-118.018;2024-03-02T07:05:33;100379.06;;;14.81;93.36
50368;BME280;36281;34.132;-118.018;2024-03-02T07:08:02;100393.31;;;14.75;94.61
50368;BME280;36281;34.132;-118.018;2024-03-02T07:10:33;100394.16;;;14.87;94.33
50368;BME280;36281;34.132;-118.018;2024-03-02T07:13:03;100380.59;;;14.89;95.01
50368;BME280;36281;34.132;-118.018;2024-03-02T07:15:34;100390.00;;;14.91;94.12
50368;BME280;36281;34.132;-118.018;2024-03-02T07:18:32;100386.50;;;14.91;93.85
50368;BME280;36281;34.132;-118.018;2024-03-02T07:21:09;100385.38;;;14.87;95.16
50368;BME280;36281;34.132;-118.018;2024-03-02T07:23:39;100386.03;;;14.82;97.59
50368;BME280;36281;34.132;-118.018;2024-03-02T07:26:08;100383.81;;;14.79;98.14
50368;BME280;36281;34.132;-118.018;2024-03-02T07:28:40;100358.69;;;14.57;98.89
50368;BME280;36281;34.132;-118.018;2024-03-02T07:31:11;100382.66;;;14.57;100.00
50368;BME280;36281;34.132;-118.018;2024-03-02T07:33:41;100377.56;;;14.55;100.00
50368;BME280;36281;34.132;-118.018;2024-03-02T07:36:10;100379.13;;;14.44;100.00
50368;BME280;36281;34.132;-118.018;2024-03-02T07:38:40;100382.44;;;14.40;100.00
50368;BME280;36281;34.132;-118.018;2024-03-02T07:41:09;100382.22;;;14.41;100.00
50368;BME280;36281;34.132;-118.018;2024-03-02T07:43:40;100382.81;;;14.43;100.00
50368;BME280;36281;34.132;-118.018;2024-03-02T07:46:10;100373.22;;;14.42;100.00
50368;BME280;36281;34.132;-118.018;2024-03-02T07:48:40;100373.22;;;14.42;100.00
50368;BME280;36281;34.132;-118.018;2024-03-02T07:51:09;100359.59;;;14.32;100.00
50368;BME280;36281;34.132;-118.018;2024-03-02T07:53:38;100373.66;;;14.39;100.00
50368;BME280;36281;34.132;-118.018;2024-03-02T07:56:08;100370.41;;;14.37;100.00
50368;BME280;36281;34.132;-118.018;2024-03-02T07:58:37;100361.44;;;14.32;100.00
50368;BME280;36281;34.132;-118.018;2024-03-02T08:01:06;100357.59;;;14.28;100.00
50368;BME280;36281;34.132;-118.018;2024-03-02T08:03:38;100360.19;;;14.34;100.00
50368;BME280;36281;34.132;-118.018;2024-03-02T08:06:07;100366.38;;;14.46;100.00
50368;BME280;36281;34.132;-118.018;2024-03-02T08:08:36;100362.41;;;14.37;100.00
50368;BME280;36281;34.132;-118.018;2024-03-02T08:11:05;100363.66;;;14.35;100.00
50368;BME280;36281;34.132;-118.018;2024-03-02T08:13:35;100361.56;;;14.37;100.00
50368;BME280;36281;34.132;-118.018;2024-03-02T08:16:04;100348.03;;;14.38;100.00
50368;BME280;36281;34.132;-118.018;2024-03-02T08:18:38;100344.97;;;14.23;100.00
50368;BME280;36281;34.132;-118.018;2024-03-02T08:21:08;100361.00;;;14.35;100.00
50368;BME280;36281;34.132;-118.018;2024-03-02T08:23:37;100322.47;;;14.19;100.00
50368;BME280;36281;34.132;-118.018;2024-03-02T08:26:09;100338.16;;;14.27;100.00
50368;BME280;36281;34.132;-118.018;2024-03-02T08:28:38;100348.19;;;14.25;100.00
50368;BME280;36281;34.132;-118.018;2024-03-02T08:31:11;100305.25;;;14.03;100.00
50368;BME280;36281;34.132;-118.018;2024-03-02T08:33:42;100308.44;;;13.93;100.00
50368;BME280;36281;34.132;-118.018;2024-03-02T08:36:12;100319.00;;;14.00;100.00
50368;BME280;36281;34.132;-118.018;2024-03-02T08:38:41;100336.69;;;14.13;100.00
50368;BME280;36281;34.132;-118.018;2024-03-02T08:41:10;100348.50;;;14.17;100.00
50368;BME280;36281;34.132;-118.018;2024-03-02T08:43:41;100345.47;;;14.13;100.00
50368;BME280;36281;34.132;-118.018;2024-03-02T08:46:18;100353.25;;;14.15;100.00
50368;BME280;36281;34.132;-118.018;2024-03-02T08:48:49;100351.91;;;14.06;100.00
50368;BME280;36281;34.132;-118.018;2024-03-02T08:51:18;100343.25;;;14.10;100.00
50368;BME280;36281;34.132;-118.018;2024-03-02T08:53:48;100336.69;;;14.13;100.00
50368;BME280;36281;34.132;-118.018;2024-03-02T08:56:17;100339.34;;;14.13;100.00
50368;BME280;36281;34.132;-118.018;2024-03-02T08:58:46;100336.31;;;13.91;100.00
50368;BME280;36281;34.132;-118.018;2024-03-02T09:01:20;100334.31;;;14.05;100.00
50368;BME280;36281;34.132;-118.018;2024-03-02T09:03:51;100330.06;;;13.97;100.00
50368;BME280;36281;34.132;-118.018;2024-03-02T09:06:21;100331.06;;;14.03;100.00
50368;BME280;36281;34.132;-118.018;2024-03-02T09:08:50;100317.47;;;13.92;100.00
50368;BME280;36281;34.132;-118.018;2024-03-02T09:11:20;100314.94;;;13.98;100.00
50368;BME280;36281;34.132;-118.018;2024-03-02T09:13:49;100328.03;;;13.99;100.00
50368;BME280;36281;34.132;-118.018;2024-03-02T09:16:19;100328.41;;;14.03;100.00
50368;BME280;36281;34.132;-118.018;2024-03-02T09:18:48;100287.94;;;13.76;100.00
50368;BME280;36281;34.132;-118.018;2024-03-02T09:21:19;100315.09;;;13.84;100.00
50368;BME280;36281;34.132;-118.018;2024-03-02T09:23:48;100321.66;;;13.82;100.00
50368;BME280;36281;34.132;-118.018;2024-03-02T09:26:17;100312.03;;;13.81;100.00
50368;BME280;36281;34.132;-118.018;2024-03-02T09:28:48;100303.69;;;13.77;100.00
50368;BME280;36281;34.132;-118.018;2024-03-02T09:31:17;100314.19;;;13.90;100.00
50368;BME280;36281;34.132;-118.018;2024-03-02T09:33:47;100295.53;;;13.72;100.00
50368;BME280;36281;34.132;-118.018;2024-03-02T09:36:22;100282.09;;;13.67;100.00
50368;BME280;36281;34.132;-118.018;2024-03-02T09:38:51;100283.88;;;13.73;100.00
50368;BME280;36281;34.132;-118.018;2024-03-02T09:41:20;100272.63;;;13.71;100.00
50368;BME280;36281;34.132;-118.018;2024-03-02T09:43:50;100282.59;;;13.76;100.00
50368;BME280;36281;34.132;-118.018;2024-03-02T09:46:22;100261.25;;;13.64;100.00
50368;BME280;36281;34.132;-118.018;2024-03-02T09:48:51;100251.03;;;13.61;100.00
50368;BME280;36281;34.132;-118.018;2024-03-02T09:51:23;100252.81;;;13.67;100.00
50368;BME280;36281;34.132;-118.018;2024-03-02T09:53:52;100252.94;;;13.72;100.00
50368;BME280;36281;34.132;-118.018;2024-03-02T09:56:30;100250.91;;;13.74;100.00
50368;BME280;36281;34.132;-118.018;2024-03-02T09:59:00;100242.69;;;13.76;100.00
50368;BME280;36281;34.132;-118.018;2024-03-02T10:01:31;100246.38;;;13.75;100.00
50368;BME280;36281;34.132;-118.018;2024-03-02T10:04:03;100235.66;;;13.81;100.00
50368;BME280;36281;34.132;-118.018;2024-03-02T10:06:36;100228.78;;;13.74;100.00
50368;BME280;36281;34.132;-118.018;2024-03-02T10:09:05;100230.19;;;13.76;100.00
50368;BME280;36281;34.132;-118.018;2024-03-02T10:11:34;100202.25;;;13.67;100.00
50368;BME280;36281;34.132;-118.018;2024-03-02T10:14:07;100227.19;;;13.73;100.00
50368;BME280;36281;34.132;-118.018;2024-03-02T10:16:37;100214.06;;;13.71;100.00
50368;BME280;36281;34.132;-118.018;2024-03-02T10:19:17;100209.69;;;13.77;100.00
50368;BME280;36281;34.132;-118.018;2024-03-02T10:21:49;100213.63;;;13.74;100.00
50368;BME280;36281;34.132;-118.018;2024-03-02T10:24:21;100204.16;;;13.78;100.00
50368;BME280;36281;34.132;-118.018;2024-03-02T10:26:51;100205.94;;;13.66;100.00
50368;BME280;36281;34.132;-118.018;2024-03-02T10:29:20;100190.44;;;13.63;100.00
50368;BME280;36281;34.132;-118.018;2024-03-02T10:31:49;100205.50;;;13.69;100.00
50368;BME280;36281;34.132;-118.018;2024-03-02T10:34:19;100196.03;;;13.73;100.00
50368;BME280;36281;34.132;-118.018;2024-03-02T10:36:50;100190.72;;;13.73;100.00
50368;BME280;36281;34.132;-118.018;2024-03-02T10:39:20;100199.28;;;13.75;100.00
50368;BME280;36281;34.132;-118.018;2024-03-02T10:41:50;100187.00;;;13.74;100.00
50368;BME280;36281;34.132;-118.018;2024-03-02T10:44:22;100177.94;;;13.63;100.00
50368;BME280;36281;34.132;-118.018;2024-03-02T10:46:52;100191.19;;;13.82;100.00
50368;BME280;36281;34.132;-118.018;2024-03-02T10:49:23;100190.84;;;13.78;100.00
50368;BME280;36281;34.132;-118.018;2024-03-02T10:51:55;100172.66;;;13.75;100.00
50368;BME280;36281;34.132;-118.018;2024-03-02T10:54:24;100197.66;;;13.74;100.00
50368;BME280;36281;34.132;-118.018;2024-03-02T10:57:07;100200.19;;;13.69;100.00
50368;BME280;36281;34.132;-118.018;2024-03-02T10:59:46;100200.41;;;13.49;100.00
50368;BME280;36281;34.132;-118.018;2024-03-02T11:02:22;100199.66;;;13.42;100.00
50368;BME280;36281;34.132;-118.018;2024-03-02T11:04:55;100189.09;;;13.35;100.00
50368;BME280;36281;34.132;-118.018;2024-03-02T11:07:28;100188.88;;;13.37;100.00
50368;BME280;36281;34.132;-118.018;2024-03-02T11:10:00;100142.69;;;13.13;100.00
50368;BME280;36281;34.132;-118.018;2024-03-02T11:12:41;100173.06;;;13.42;100.00
50368;BME280;36281;34.132;-118.018;2024-03-02T11:15:18;100169.44;;;13.36;100.00
50368;BME280;36281;34.132;-118.018;2024-03-02T11:17:50;100169.25;;;13.38;100.00
50368;BME280;36281;34.132;-118.018;2024-03-02T11:20:20;100153.81;;;13.28;100.00
50368;BME280;36281;34.132;-118.018;2024-03-02T11:22:51;100164.28;;;13.41;100.00
50368;BME280;36281;34.132;-118.018;2024-03-02T11:25:24;100148.53;;;13.40;100.00
50368;BME280;36281;34.132;-118.018;2024-03-02T11:28:01;100152.25;;;13.39;100.00
50368;BME280;36281;34.132;-118.018;2024-03-02T11:30:50;100155.94;;;13.38;100.00
50368;BME280;36281;34.132;-118.018;2024-03-02T11:33:26;100138.41;;;13.30;100.00
50368;BME280;36281;34.132;-118.018;2024-03-02T11:35:57;100144.13;;;13.34;100.00
50368;BME280;36281;34.132;-118.018;2024-03-02T11:38:35;100157.34;;;13.40;100.00
50368;BME280;36281;34.132;-118.018;2024-03-02T11:41:07;100152.44;;;13.37;100.00
50368;BME280;36281;34.132;-118.018;2024-03-02T11:43:42;100141.88;;;13.31;100.00
50368;BME280;36281;34.132;-118.018;2024-03-02T11:46:12;100158.38;;;13.39;100.00
50368;BME280;36281;34.132;-118.018;2024-03-02T11:48:44;100140.84;;;13.32;100.00
50368;BME280;36281;34.132;-118.018;2024-03-02T11:51:15;100132.72;;;13.27;100.00
50368;BME280;36281;34.132;-118.018;2024-03-02T11:53:47;100144.47;;;13.37;100.00
50368;BME280;36281;34.132;-118.018;2024-03-02T11:56:17;100131.97;;;13.19;100.00
50368;BME280;36281;34.132;-118.018;2024-03-02T11:58:47;100142.34;;;13.28;100.00
50368;BME280;36281;34.132;-118.018;2024-03-02T12:01:20;100143.38;;;13.27;100.00
50368;BME280;36281;34.132;-118.018;2024-03-02T12:03:49;100136.81;;;13.29;100.00
50368;BME280;36281;34.132;-118.018;2024-03-02T12:06:21;100129.88;;;13.28;100.00
50368;BME280;36281;34.132;-118.018;2024-03-02T12:08:54;100115.97;;;13.26;100.00
50368;BME280;36281;34.132;-118.018;2024-03-02T12:11:24;100118.63;;;13.26;100.00
50368;BME280;36281;34.132;-118.018;2024-03-02T12:13:55;100123.03;;;13.32;100.00
50368;BME280;36281;34.132;-118.018;2024-03-02T12:16:25;100107.53;;;13.29;100.00
50368;BME280;36281;34.132;-118.018;2024-03-02T12:18:55;100123.19;;;13.37;100.00
50368;BME280;36281;34.132;-118.018;2024-03-02T12:21:24;100119.94;;;13.35;100.00
50368;BME280;36281;34.132;-118.018;2024-03-02T12:23:56;100085.44;;;13.10;100.00
50368;BME280;36281;34.132;-118.018;2024-03-02T12:26:25;100129.09;;;13.39;100.00
50368;BME280;36281;34.132;-118.018;2024-03-02T12:28:55;100135.00;;;13.41;100.00
50368;BME280;36281;34.132;-118.018;2024-03-02T12:31:24;100141.13;;;13.42;100.00
50368;BME280;36281;34.132;-118.018;2024-03-02T12:33:55;100156.75;;;13.38;100.00